createdAt,value
2019-04-16T00:01:42.300Z,54.60
2019-04-16T00:04:26.827Z,54.50
2019-04-16T00:07:19.310Z,54.60
2019-04-16T00:10:24.051Z,54.50
2019-04-16T00:12:59.572Z,54.80
2019-04-16T00:15:27.629Z,54.40
2019-04-16T00:17:55.670Z,54.70
2019-04-16T00:20:23.704Z,54.30
2019-04-16T00:22:58.124Z,54.70
2019-04-16T00:25:26.149Z,53.90
2019-04-16T00:27:54.554Z,54.60
2019-04-16T00:30:22.613Z,54.50
2019-04-16T00:32:50.708Z,54.10
2019-04-16T00:35:18.788Z,54.60
2019-04-16T00:37:51.389Z,54.50
2019-04-16T00:40:16.548Z,54.00
2019-04-16T00:42:44.607Z,53.80
2019-04-16T00:45:12.619Z,54.00
2019-04-16T00:47:40.663Z,53.80
2019-04-16T00:50:08.861Z,53.80
2019-04-16T00:52:37.672Z,53.90
2019-04-16T00:55:06.195Z,53.70
2019-04-16T00:57:34.240Z,54.10
2019-04-16T01:00:02.303Z,53.20
2019-04-16T01:02:30.347Z,53.30
2019-04-16T01:04:58.417Z,53.30
2019-04-16T01:07:26.578Z,53.20
2019-04-16T01:09:54.618Z,53.40
2019-04-16T01:12:22.706Z,53.20
2019-04-16T01:14:50.713Z,53.50
2019-04-16T01:17:18.736Z,53.30
2019-04-16T01:19:46.804Z,52.80
2019-04-16T01:22:16.025Z,53.10
2019-04-16T01:24:44.743Z,53.30
2019-04-16T01:27:12.880Z,53.00
2019-04-16T01:29:40.938Z,53.50
2019-04-16T01:32:26.707Z,53.20
2019-04-16T01:35:28.714Z,53.10
2019-04-16T01:38:14.357Z,53.10
2019-04-16T01:40:50.255Z,53.20
2019-04-16T01:43:18.180Z,52.80
2019-04-16T01:45:46.283Z,52.70
2019-04-16T01:48:14.368Z,52.80
2019-04-16T01:50:43.704Z,52.40
2019-04-16T01:53:12.165Z,52.90
2019-04-16T01:55:42.429Z,52.80
2019-04-16T01:58:09.990Z,52.50
2019-04-16T02:00:39.232Z,52.60
2019-04-16T02:03:08.124Z,52.40
2019-04-16T02:05:36.229Z,52.30
2019-04-16T02:08:04.262Z,52.20
2019-04-16T02:10:32.281Z,52.10
2019-04-16T02:13:00.700Z,52.20
2019-04-16T02:15:28.739Z,52.00
2019-04-16T02:17:58.780Z,51.70
2019-04-16T02:20:29.764Z,52.00
2019-04-16T02:22:57.799Z,52.10
2019-04-16T02:25:25.820Z,51.90
2019-04-16T02:27:54.249Z,51.80
2019-04-16T02:30:23.626Z,52.00
2019-04-16T02:32:51.636Z,51.60
2019-04-16T02:35:19.692Z,51.90
2019-04-16T02:37:47.699Z,51.50
2019-04-16T02:40:18.326Z,51.80
2019-04-16T02:42:45.561Z,51.90
2019-04-16T02:45:13.609Z,51.70
2019-04-16T02:47:42.404Z,51.10
2019-04-16T02:50:13.969Z,51.30
2019-04-16T02:52:51.105Z,51.40
2019-04-16T02:55:33.763Z,51.50
2019-04-16T02:58:20.644Z,51.80
2019-04-16T03:01:10.687Z,51.50
2019-04-16T03:04:00.509Z,51.40
2019-04-16T03:06:31.708Z,51.10
2019-04-16T03:08:58.404Z,51.50
2019-04-16T03:11:26.452Z,51.40
2019-04-16T03:13:58.194Z,51.60
2019-04-16T03:16:40.551Z,51.20
2019-04-16T03:19:12.461Z,51.10
2019-04-16T03:21:40.572Z,51.60
2019-04-16T03:24:09.661Z,51.40
2019-04-16T03:26:38.039Z,51.40
2019-04-16T03:29:06.067Z,51.30
2019-04-16T03:31:34.120Z,51.20
2019-04-16T03:34:02.174Z,51.30
2019-04-16T03:36:30.382Z,51.30
2019-04-16T03:38:58.428Z,51.00
2019-04-16T03:41:26.538Z,50.90
2019-04-16T03:43:54.619Z,51.40
2019-04-16T03:46:22.649Z,51.10
2019-04-16T03:48:52.540Z,50.90
2019-04-16T03:51:20.566Z,51.00
2019-04-16T03:53:49.657Z,51.20
2019-04-16T03:56:18.397Z,51.00
2019-04-16T03:58:46.460Z,50.70
2019-04-16T04:01:15.451Z,51.00
2019-04-16T04:03:43.752Z,51.10
2019-04-16T04:06:11.834Z,50.80
2019-04-16T04:08:39.852Z,50.70
2019-04-16T04:11:10.394Z,51.20
2019-04-16T04:13:37.628Z,50.90
2019-04-16T04:16:06.045Z,50.80
2019-04-16T04:18:34.124Z,50.60
2019-04-16T04:21:02.210Z,50.90
2019-04-16T04:23:30.224Z,50.80
2019-04-16T04:25:58.239Z,50.60
2019-04-16T04:28:26.277Z,50.50
2019-04-16T04:30:54.316Z,50.60
2019-04-16T04:33:41.912Z,50.60
2019-04-16T04:36:07.990Z,50.50
2019-04-16T04:38:37.450Z,50.60
2019-04-16T04:41:06.240Z,50.60
2019-04-16T04:43:34.296Z,51.20
2019-04-16T04:46:02.423Z,51.90
2019-04-16T04:48:30.752Z,51.60
2019-04-16T04:50:58.837Z,51.50
2019-04-16T04:53:26.849Z,51.60
2019-04-16T04:55:57.159Z,51.50
2019-04-16T04:58:24.650Z,51.60
2019-04-16T05:00:52.836Z,51.60
2019-04-16T05:03:35.401Z,51.60
2019-04-16T05:06:04.108Z,51.80
2019-04-16T05:08:32.157Z,51.80
2019-04-16T05:11:02.891Z,51.80
2019-04-16T05:13:29.973Z,51.70
2019-04-16T05:16:01.576Z,51.90
2019-04-16T05:18:28.028Z,51.90
2019-04-16T05:20:56.082Z,51.70
2019-04-16T05:23:25.683Z,51.70
2019-04-16T05:25:53.843Z,51.80
2019-04-16T05:28:21.997Z,52.00
2019-04-16T05:30:52.231Z,51.90
2019-04-16T05:33:19.838Z,51.80
2019-04-16T05:35:47.893Z,51.80
2019-04-16T05:38:15.923Z,52.00
2019-04-16T05:40:43.999Z,51.80
2019-04-16T05:43:12.257Z,51.80
2019-04-16T05:45:40.325Z,52.50
2019-04-16T05:48:08.346Z,52.80
2019-04-16T05:50:36.418Z,52.50
2019-04-16T05:53:05.433Z,52.60
2019-04-16T05:55:39.885Z,52.70
2019-04-16T05:58:07.941Z,52.80
2019-04-16T06:01:00.821Z,52.80
2019-04-16T06:03:28.832Z,52.60
2019-04-16T06:05:59.244Z,52.10
2019-04-16T06:08:26.656Z,52.20
2019-04-16T06:10:57.361Z,52.00
2019-04-16T06:13:55.380Z,51.30
2019-04-16T06:16:42.267Z,51.20
2019-04-16T06:19:50.895Z,51.30
2019-04-16T06:22:40.534Z,51.30
2019-04-16T06:25:45.383Z,52.20
2019-04-16T06:28:23.799Z,51.70
2019-04-16T06:31:17.473Z,51.70
2019-04-16T06:34:10.040Z,51.60
2019-04-16T06:36:59.940Z,51.90
2019-04-16T06:39:44.453Z,51.70
2019-04-16T06:42:29.037Z,51.90
2019-04-16T06:45:04.868Z,51.70
2019-04-16T06:48:00.350Z,51.80
2019-04-16T06:50:49.926Z,52.10
2019-04-16T06:53:36.688Z,52.20
2019-04-16T06:56:23.504Z,52.40
2019-04-16T06:59:11.087Z,52.30
2019-04-16T07:01:55.320Z,52.30
2019-04-16T07:04:37.993Z,52.20
2019-04-16T07:07:23.612Z,52.50
2019-04-16T07:09:57.986Z,52.30
2019-04-16T07:12:28.851Z,50.50
2019-04-16T07:14:56.935Z,50.50
2019-04-16T07:17:25.004Z,50.30
2019-04-16T07:19:53.045Z,50.20
2019-04-16T07:22:22.088Z,50.00
2019-04-16T07:24:55.820Z,49.80
2019-04-16T07:27:23.960Z,49.50
2019-04-16T07:30:13.613Z,49.70
2019-04-16T07:33:00.699Z,49.40
2019-04-16T07:35:45.879Z,49.60
2019-04-16T07:38:27.418Z,49.30
2019-04-16T07:41:17.375Z,49.10
2019-04-16T07:44:11.143Z,49.10
2019-04-16T07:46:56.629Z,49.00
2019-04-16T07:49:38.404Z,49.00
2019-04-16T07:52:31.257Z,48.50
2019-04-16T07:55:26.257Z,48.90
2019-04-16T07:57:53.530Z,48.70
2019-04-16T08:00:21.554Z,48.90
2019-04-16T08:02:50.788Z,48.30
2019-04-16T08:05:22.234Z,48.60
2019-04-16T08:07:52.883Z,48.60
2019-04-16T08:10:23.116Z,48.60
2019-04-16T08:13:01.855Z,48.10
2019-04-16T08:15:30.089Z,48.50
2019-04-16T08:17:58.291Z,48.80
2019-04-16T08:20:26.306Z,48.20
2019-04-16T08:22:59.280Z,48.60
2019-04-16T08:25:33.631Z,48.60
2019-04-16T08:27:58.637Z,48.20
2019-04-16T08:30:27.157Z,48.50
2019-04-16T08:32:55.175Z,48.20
2019-04-16T08:35:23.225Z,48.20
2019-04-16T08:37:51.294Z,48.30
2019-04-16T08:40:19.335Z,48.80
2019-04-16T08:42:47.378Z,48.30
2019-04-16T08:45:15.430Z,48.30
2019-04-16T08:47:45.221Z,48.40
2019-04-16T08:50:13.259Z,49.40
2019-04-16T08:52:42.461Z,48.60
2019-04-16T08:55:10.832Z,47.90
2019-04-16T08:57:38.905Z,48.50
2019-04-16T09:00:14.151Z,48.30
2019-04-16T09:02:38.644Z,48.10
2019-04-16T09:05:11.104Z,48.30
2019-04-16T09:07:42.502Z,48.30
2019-04-16T09:10:18.173Z,48.20
2019-04-16T09:12:45.888Z,48.70
2019-04-16T09:15:15.175Z,47.90
2019-04-16T09:17:49.225Z,47.60
2019-04-16T09:20:30.862Z,47.80
2019-04-16T09:22:59.326Z,48.30
2019-04-16T09:25:45.717Z,47.80
2019-04-16T09:28:31.087Z,47.60
2019-04-16T09:31:25.806Z,47.60
2019-04-16T09:33:57.660Z,48.10
2019-04-16T09:36:36.191Z,48.10
2019-04-16T09:39:12.544Z,47.80
2019-04-16T09:41:43.414Z,47.40
2019-04-16T09:44:11.458Z,47.70
2019-04-16T09:46:51.240Z,47.40
2019-04-16T09:49:09.393Z,47.40
2019-04-16T09:51:37.445Z,47.20
2019-04-16T09:54:05.583Z,47.80
2019-04-16T09:56:33.622Z,47.50
2019-04-16T09:59:18.539Z,47.20
2019-04-16T10:02:01.841Z,48.50
2019-04-16T10:04:29.867Z,48.70
2019-04-16T10:06:57.942Z,48.60
2019-04-16T10:09:26.083Z,48.70
2019-04-16T10:11:57.082Z,48.80
2019-04-16T10:14:23.917Z,48.90
2019-04-16T10:16:52.022Z,49.60
2019-04-16T10:19:21.741Z,49.20
2019-04-16T10:21:53.144Z,49.80
2019-04-16T10:24:47.504Z,49.70
2019-04-16T10:27:36.621Z,49.60
2019-04-16T10:30:06.970Z,50.30
2019-04-16T10:32:34.977Z,50.60
2019-04-16T10:35:03.030Z,51.10
2019-04-16T10:37:31.146Z,51.20
2019-04-16T10:40:07.461Z,51.50
2019-04-16T10:42:52.707Z,51.50
2019-04-16T10:45:38.132Z,51.70
2019-04-16T10:48:26.403Z,51.40
2019-04-16T10:51:08.095Z,51.20
2019-04-16T10:53:54.966Z,50.80
2019-04-16T10:56:40.404Z,50.80
2019-04-16T10:59:25.859Z,50.80
2019-04-16T11:02:20.782Z,50.50
2019-04-16T11:05:15.349Z,50.20
2019-04-16T11:07:42.431Z,50.40
2019-04-16T11:10:11.940Z,50.10
2019-04-16T11:12:40.395Z,50.30
2019-04-16T11:15:09.071Z,50.00
2019-04-16T11:17:37.773Z,50.00
2019-04-16T11:20:06.204Z,49.90
2019-04-16T11:22:34.240Z,50.00
2019-04-16T11:25:02.318Z,50.00
2019-04-16T11:27:30.398Z,50.20
2019-04-16T11:29:58.477Z,51.60
2019-04-16T11:32:28.671Z,52.80
2019-04-16T11:34:56.718Z,53.30
2019-04-16T11:37:24.765Z,53.80
2019-04-16T11:39:52.892Z,53.20
2019-04-16T11:42:20.962Z,52.90
2019-04-16T11:44:50.389Z,52.90
2019-04-16T11:47:18.750Z,52.40
2019-04-16T11:49:46.827Z,52.80
2019-04-16T11:52:14.979Z,53.50
2019-04-16T11:54:46.824Z,53.60
2019-04-16T11:57:13.317Z,53.70
2019-04-16T11:59:42.052Z,53.70
2019-04-16T12:02:23.989Z,53.80
2019-04-16T12:05:02.331Z,54.20
2019-04-16T12:07:49.109Z,53.80
2019-04-16T12:10:35.037Z,54.30
2019-04-16T12:13:13.193Z,54.40
2019-04-16T12:16:02.762Z,53.70
2019-04-16T12:18:49.560Z,53.80
2019-04-16T12:21:31.664Z,54.00
2019-04-16T12:24:21.264Z,53.70
2019-04-16T12:27:06.782Z,54.00
2019-04-16T12:30:08.724Z,54.20
2019-04-16T12:33:07.495Z,53.70
2019-04-16T12:35:59.227Z,53.70
2019-04-16T12:38:34.444Z,53.70
2019-04-16T12:41:17.539Z,53.80
2019-04-16T12:43:51.778Z,53.20
2019-04-16T12:46:53.892Z,53.10
2019-04-16T12:49:44.158Z,53.10
2019-04-16T12:52:23.193Z,52.80
2019-04-16T12:55:16.192Z,52.30
2019-04-16T12:58:02.769Z,53.50
2019-04-16T13:00:55.804Z,52.70
2019-04-16T13:03:37.568Z,52.30
2019-04-16T13:06:18.412Z,52.70
2019-04-16T13:09:05.252Z,52.80
2019-04-16T13:11:57.875Z,52.40
2019-04-16T13:15:00.814Z,51.90
2019-04-16T13:17:34.839Z,51.80
2019-04-16T13:20:29.164Z,51.00
2019-04-16T13:22:56.933Z,51.30
2019-04-16T13:25:29.278Z,50.80
2019-04-16T13:27:57.313Z,50.80
2019-04-16T13:30:25.397Z,50.70
2019-04-16T13:32:53.513Z,50.40
2019-04-16T13:35:21.565Z,50.30
2019-04-16T13:37:49.596Z,50.50
2019-04-16T13:40:17.667Z,50.10
2019-04-16T13:42:45.754Z,50.10
2019-04-16T13:45:38.433Z,49.80
2019-04-16T13:48:16.515Z,49.00
2019-04-16T13:50:44.469Z,48.80
2019-04-16T13:53:29.921Z,48.70
2019-04-16T13:56:25.957Z,48.60
2019-04-16T13:59:02.514Z,48.20
2019-04-16T14:01:33.946Z,48.10
2019-04-16T14:04:01.996Z,48.20
2019-04-16T14:06:30.081Z,48.50
2019-04-16T14:08:58.105Z,48.30
2019-04-16T14:11:26.211Z,48.20
2019-04-16T14:13:54.233Z,48.40
2019-04-16T14:16:22.368Z,48.20
2019-04-16T14:18:50.692Z,48.10
2019-04-16T14:21:18.800Z,48.20
2019-04-16T14:23:46.907Z,48.30
2019-04-16T14:26:14.961Z,48.30
2019-04-16T14:28:51.885Z,48.90
2019-04-16T14:31:16.393Z,48.10
2019-04-16T14:34:07.420Z,48.20
2019-04-16T14:36:46.955Z,48.20
2019-04-16T14:39:33.676Z,47.80
2019-04-16T14:42:01.730Z,47.80
2019-04-16T14:44:34.558Z,47.80
2019-04-16T14:47:03.197Z,48.10
2019-04-16T14:49:31.611Z,47.90
2019-04-16T14:52:02.236Z,48.10
2019-04-16T14:54:37.894Z,47.70
2019-04-16T14:57:10.191Z,47.80
2019-04-16T15:00:03.414Z,47.90
2019-04-16T15:02:56.186Z,48.00
2019-04-16T15:05:47.613Z,48.10
2019-04-16T15:08:40.371Z,48.00
2019-04-16T15:11:33.229Z,47.90
2019-04-16T15:14:11.043Z,47.70
2019-04-16T15:17:03.894Z,47.90
2019-04-16T15:19:35.646Z,48.20
2019-04-16T15:22:21.064Z,47.40
2019-04-16T15:25:14.631Z,47.40
2019-04-16T15:28:01.451Z,47.60
2019-04-16T15:30:40.211Z,48.00
2019-04-16T15:33:26.486Z,47.80
2019-04-16T15:36:00.863Z,48.00
2019-04-16T15:39:04.028Z,48.00
2019-04-16T15:41:41.716Z,48.20
2019-04-16T15:44:35.399Z,48.30
2019-04-16T15:47:22.172Z,48.40
2019-04-16T15:50:05.054Z,48.40
2019-04-16T15:52:41.633Z,48.70
2019-04-16T15:55:27.085Z,48.50
2019-04-16T15:58:13.655Z,48.60
2019-04-16T16:00:57.089Z,49.00
2019-04-16T16:03:42.584Z,49.20
2019-04-16T16:06:16.867Z,49.30
2019-04-16T16:09:07.912Z,49.90
2019-04-16T16:12:04.547Z,49.20
2019-04-16T16:14:34.629Z,48.40
2019-04-16T16:17:02.382Z,48.20
2019-04-16T16:19:30.972Z,48.50
2019-04-16T16:21:59.002Z,47.70
2019-04-16T16:24:27.160Z,47.30
2019-04-16T16:26:55.320Z,47.50
2019-04-16T16:29:23.411Z,47.50
2019-04-16T16:31:51.509Z,48.10
2019-04-16T16:34:19.595Z,48.20
2019-04-16T16:36:47.753Z,48.30
2019-04-16T16:39:15.943Z,48.20
2019-04-16T16:41:46.473Z,48.30
2019-04-16T16:44:13.885Z,48.40
2019-04-16T16:46:58.248Z,48.70
2019-04-16T16:49:26.093Z,48.70
2019-04-16T16:52:18.739Z,48.60
2019-04-16T16:54:47.594Z,49.10
2019-04-16T16:57:34.377Z,49.50
2019-04-16T17:00:27.277Z,49.30
2019-04-16T17:03:00.396Z,49.10
2019-04-16T17:05:32.268Z,48.80
2019-04-16T17:08:00.376Z,49.00
2019-04-16T17:10:28.441Z,48.60
2019-04-16T17:12:56.602Z,48.60
2019-04-16T17:15:24.663Z,48.60
2019-04-16T17:17:53.501Z,48.70
2019-04-16T17:20:22.254Z,48.40
2019-04-16T17:22:50.489Z,48.20
2019-04-16T17:25:35.451Z,48.20
2019-04-16T17:27:52.101Z,48.40
2019-04-16T17:30:20.247Z,47.70
2019-04-16T17:32:48.492Z,47.90
2019-04-16T17:35:16.540Z,47.90
2019-04-16T17:37:44.552Z,47.80
2019-04-16T17:40:18.340Z,48.20
2019-04-16T17:42:46.428Z,47.80
2019-04-16T17:45:42.116Z,48.00
2019-04-16T17:48:25.621Z,47.50
2019-04-16T17:51:18.518Z,47.50
2019-04-16T17:53:53.948Z,47.70
2019-04-16T17:56:41.092Z,47.70
2019-04-16T17:59:12.395Z,47.50
2019-04-16T18:02:14.045Z,47.70
2019-04-16T18:05:06.575Z,47.90
2019-04-16T18:07:59.159Z,48.40
2019-04-16T18:10:45.988Z,49.70
2019-04-16T18:13:37.692Z,50.20
2019-04-16T18:16:16.712Z,50.50
2019-04-16T18:19:14.496Z,51.70
2019-04-16T18:21:50.104Z,51.50
2019-04-16T18:24:36.881Z,50.70
2019-04-16T18:27:29.141Z,51.60
2019-04-16T18:30:30.329Z,50.70
2019-04-16T18:33:16.039Z,51.10
2019-04-16T18:36:01.025Z,53.20
2019-04-16T18:38:34.182Z,53.10
2019-04-16T18:41:09.988Z,53.50
2019-04-16T18:43:55.375Z,53.80
2019-04-16T18:46:32.196Z,54.40
2019-04-16T18:49:06.383Z,54.60
2019-04-16T18:51:34.520Z,53.50
2019-04-16T18:54:02.680Z,56.20
2019-04-16T18:56:30.746Z,56.70
2019-04-16T18:58:58.981Z,58.10
2019-04-16T19:01:29.570Z,58.20
2019-04-16T19:03:58.894Z,58.60
2019-04-16T19:06:27.089Z,58.80
2019-04-16T19:08:55.191Z,58.80
2019-04-16T19:11:23.261Z,59.00
2019-04-16T19:13:51.311Z,59.40
2019-04-16T19:16:19.372Z,59.50
2019-04-16T19:18:47.521Z,59.70
2019-04-16T19:21:15.594Z,59.90
2019-04-16T19:23:43.685Z,59.90
2019-04-16T19:26:11.760Z,60.00
2019-04-16T19:28:40.476Z,60.10
2019-04-16T19:31:08.532Z,60.30
2019-04-16T19:33:38.427Z,60.40
2019-04-16T19:36:07.103Z,60.20
2019-04-16T19:38:35.821Z,60.40
2019-04-16T19:41:05.293Z,60.40
2019-04-16T19:43:35.271Z,60.60
2019-04-16T19:46:15.297Z,60.40
2019-04-16T19:48:43.480Z,60.40
2019-04-16T19:51:12.446Z,60.80
2019-04-16T19:53:40.873Z,60.60
2019-04-16T19:56:09.346Z,60.90
2019-04-16T19:58:37.786Z,60.90
2019-04-16T20:01:11.969Z,61.00
2019-04-16T20:03:43.243Z,61.10
2019-04-16T20:06:09.765Z,61.20
2019-04-16T20:08:39.976Z,61.20
2019-04-16T20:11:08.136Z,61.40
2019-04-16T20:13:36.250Z,61.40
2019-04-16T20:16:04.558Z,61.60
2019-04-16T20:18:32.717Z,61.50
2019-04-16T20:21:01.778Z,61.80
2019-04-16T20:23:30.376Z,61.90
2019-04-16T20:26:00.397Z,61.90
2019-04-16T20:28:28.252Z,61.90
2019-04-16T20:31:01.947Z,61.80
2019-04-16T20:33:26.121Z,62.40
2019-04-16T20:35:54.256Z,62.70
2019-04-16T20:38:22.376Z,62.70
2019-04-16T20:40:50.475Z,62.60
2019-04-16T20:43:18.776Z,62.70
2019-04-16T20:45:47.005Z,62.80
2019-04-16T20:48:15.028Z,62.80
2019-04-16T20:50:43.119Z,62.90
2019-04-16T20:53:11.242Z,62.90
2019-04-16T20:55:39.284Z,62.90
2019-04-16T20:58:07.384Z,63.20
2019-04-16T21:00:42.283Z,63.30
2019-04-16T21:03:21.385Z,63.30
2019-04-16T21:05:36.741Z,63.50
2019-04-16T21:08:04.844Z,63.50
2019-04-16T21:10:35.620Z,63.70
2019-04-16T21:13:02.824Z,63.50
2019-04-16T21:15:30.879Z,63.70
2019-04-16T21:17:59.526Z,63.70
2019-04-16T21:20:27.624Z,63.60
2019-04-16T21:22:57.433Z,61.90
2019-04-16T21:25:25.723Z,60.20
2019-04-16T21:28:03.068Z,60.40
2019-04-16T21:30:31.134Z,60.50
2019-04-16T21:33:07.465Z,60.40
2019-04-16T21:35:40.834Z,60.30
2019-04-16T21:38:27.773Z,60.40
2019-04-16T21:40:57.309Z,60.30
2019-04-16T21:43:25.742Z,60.20
2019-04-16T21:45:53.939Z,60.10
2019-04-16T21:48:23.890Z,60.30
2019-04-16T21:50:54.089Z,60.00
2019-04-16T21:53:21.639Z,60.20
2019-04-16T21:55:49.838Z,60.00
2019-04-16T21:58:18.562Z,61.30
2019-04-16T22:01:05.150Z,61.50
2019-04-16T22:03:33.915Z,61.30
2019-04-16T22:06:02.166Z,61.90
2019-04-16T22:08:30.366Z,62.10
2019-04-16T22:10:58.500Z,62.20
2019-04-16T22:13:26.808Z,62.20
2019-04-16T22:15:57.337Z,62.40
2019-04-16T22:18:24.879Z,62.80
2019-04-16T22:20:52.946Z,63.00
2019-04-16T22:23:21.050Z,63.10
2019-04-16T22:25:49.053Z,63.50
2019-04-16T22:28:17.137Z,63.40
2019-04-16T22:30:45.168Z,64.40
2019-04-16T22:33:13.221Z,63.70
2019-04-16T22:35:41.260Z,63.60
2019-04-16T22:38:12.961Z,63.70
2019-04-16T22:40:51.643Z,64.10
2019-04-16T22:43:48.459Z,64.00
2019-04-16T22:46:23.325Z,64.10
2019-04-16T22:48:58.807Z,63.70
2019-04-16T22:51:26.966Z,64.10
2019-04-16T22:53:55.389Z,64.30
2019-04-16T22:56:28.404Z,64.40
2019-04-16T22:58:56.684Z,64.40
2019-04-16T23:01:25.904Z,64.30
2019-04-16T23:03:54.531Z,64.40
2019-04-16T23:06:22.566Z,64.30
2019-04-16T23:08:50.703Z,63.80
2019-04-16T23:11:23.236Z,64.10
2019-04-16T23:13:48.591Z,64.50
2019-04-16T23:16:17.050Z,63.20
2019-04-16T23:18:48.803Z,64.30
2019-04-16T23:21:15.153Z,64.40
2019-04-16T23:23:43.203Z,64.50
2019-04-16T23:26:11.298Z,63.90
2019-04-16T23:28:39.714Z,64.30
2019-04-16T23:31:09.131Z,64.50
2019-04-16T23:33:37.192Z,64.70
2019-04-16T23:36:05.258Z,64.50
2019-04-16T23:38:33.347Z,64.70
2019-04-16T23:41:01.384Z,64.80
2019-04-16T23:43:57.545Z,64.50
2019-04-16T23:46:43.207Z,64.50
2019-04-16T23:49:45.482Z,64.40
2019-04-16T23:52:41.236Z,64.80
2019-04-16T23:55:17.722Z,64.70
2019-04-16T23:58:07.630Z,64.80
